Time;durP1;ratioP1;P1;durP2;ratioP2;P2;SDS_P1;SDS_P2;PMS_P1;PMS_P2;Temp;Humidity;BMP_temperature;BMP_pressure;BME280_temperature;BME280_humidity;BME280_pressure;Samples;Min_cycle;Max_cycle;Signal;HPM_P1;HPM_P2
2023/02/06 00:00:35;;;;;;;30.13;14.88;;;;;;;;;;5014815;28;20029;-34
2023/02/06 00:03:00;;;;;;;38.00;13.98;;;;;;;;;;5025067;28;20017;-35
2023/02/06 00:05:26;;;;;;;36.78;15.52;;;;;;;;;;5022733;28;20032;-34
2023/02/06 00:07:52;;;;;;;31.08;13.93;;;;;;;;;;5025095;28;20080;-33
2023/02/06 00:10:18;;;;;;;35.95;15.43;;;;;;;;;;5009578;28;21922;-31
2023/02/06 00:12:44;;;;;;;30.88;12.88;;;;;;;;;;5020794;28;20029;-35
2023/02/06 00:15:10;;;;;;;29.30;14.57;;;;;;;;;;5025314;28;20450;-34
2023/02/06 00:17:37;;;;;;;28.98;13.65;;;;;;;;;;5020783;28;20025;-34
2023/02/06 00:20:04;;;;;;;29.33;13.45;;;;;;;;;;5021713;28;20033;-32
2023/02/06 00:22:30;;;;;;;29.20;13.95;;;;;;;;;;5024999;28;20048;-34
2023/02/06 00:24:56;;;;;;;28.50;13.80;;;;;;;;;;5026596;28;20032;-35
2023/02/06 00:27:22;;;;;;;24.42;13.32;;;;;;;;;;5027274;28;20037;-33
2023/02/06 00:29:48;;;;;;;27.73;13.63;;;;;;;;;;5014942;28;20048;-32
2023/02/06 00:32:14;;;;;;;24.92;13.55;;;;;;;;;;5021627;28;20406;-34
2023/02/06 00:34:40;;;;;;;22.85;12.73;;;;;;;;;;5027075;28;20045;-35
2023/02/06 00:37:06;;;;;;;24.58;12.45;;;;;;;;;;5028406;28;20030;-34
2023/02/06 00:39:32;;;;;;;21.73;12.23;;;;;;;;;;5025393;28;20033;-35
2023/02/06 00:41:58;;;;;;;23.20;12.23;;;;;;;;;;5021400;28;20030;-35
2023/02/06 00:44:24;;;;;;;21.92;12.30;;;;;;;;;;5009557;28;20026;-29
2023/02/06 00:46:50;;;;;;;17.25;11.45;;;;;;;;;;5016033;28;20550;-29
2023/02/06 00:49:16;;;;;;;16.98;10.10;;;;;;;;;;5020441;28;20747;-32
2023/02/06 00:51:42;;;;;;;16.02;9.20;;;;;;;;;;5007250;28;20061;-34
2023/02/06 00:54:08;;;;;;;15.35;9.52;;;;;;;;;;5005181;28;20033;-31
2023/02/06 00:56:34;;;;;;;13.15;9.80;;;;;;;;;;5003798;28;20133;-32
2023/02/06 00:59:00;;;;;;;13.32;9.48;;;;;;;;;;5020147;28;20406;-35
2023/02/06 01:01:27;;;;;;;17.00;9.20;;;;;;;;;;5023111;28;20038;-35
2023/02/06 01:03:53;;;;;;;14.70;9.02;;;;;;;;;;5025307;28;20025;-35
2023/02/06 01:06:19;;;;;;;12.32;8.52;;;;;;;;;;5024698;28;20021;-34
2023/02/06 01:08:45;;;;;;;16.60;9.10;;;;;;;;;;5022714;28;20037;-33
2023/02/06 01:11:13;;;;;;;13.45;8.48;;;;;;;;;;5023148;28;20033;-34
2023/02/06 01:13:39;;;;;;;15.10;9.05;;;;;;;;;;5018776;28;20033;-32
2023/02/06 01:16:14;;;;;;;12.85;8.90;;;;;;;;;;5023170;28;20104;-33
2023/02/06 01:18:40;;;;;;;15.15;8.43;;;;;;;;;;5024828;28;20510;-32
2023/02/06 01:21:10;;;;;;;11.88;9.07;;;;;;;;;;5022129;28;20159;-32
2023/02/06 01:23:36;;;;;;;10.98;7.55;;;;;;;;;;5026078;28;20033;-35
2023/02/06 01:26:09;;;;;;;13.95;9.77;;;;;;;;;;5026423;28;20026;-31
2023/02/06 01:28:39;;;;;;;13.00;9.35;;;;;;;;;;5024347;28;20064;-35
2023/02/06 01:31:12;;;;;;;15.48;9.10;;;;;;;;;;5020775;28;20045;-34
2023/02/06 01:33:38;;;;;;;15.73;9.90;;;;;;;;;;5024019;28;20053;-33
2023/02/06 01:36:04;;;;;;;14.18;9.00;;;;;;;;;;5026893;28;20100;-35
2023/02/06 01:38:30;;;;;;;13.50;9.20;;;;;;;;;;5024234;28;20046;-32
2023/02/06 01:41:00;;;;;;;12.75;8.13;;;;;;;;;;5022795;28;20034;-35
2023/02/06 01:43:28;;;;;;;10.75;8.50;;;;;;;;;;5020550;28;20036;-35
2023/02/06 01:45:54;;;;;;;11.38;8.10;;;;;;;;;;5022224;28;20044;-33
2023/02/06 01:48:21;;;;;;;11.60;8.65;;;;;;;;;;5023880;28;20077;-35
2023/02/06 01:50:50;;;;;;;13.85;9.45;;;;;;;;;;5026582;28;20069;-35
2023/02/06 01:53:17;;;;;;;17.60;9.00;;;;;;;;;;5021592;28;20034;-35
2023/02/06 01:55:44;;;;;;;11.18;7.78;;;;;;;;;;5025137;28;20023;-34
2023/02/06 01:58:12;;;;;;;13.30;8.65;;;;;;;;;;5023040;28;20513;-35
2023/02/06 02:00:38;;;;;;;11.80;9.15;;;;;;;;;;5024380;28;20041;-35
2023/02/06 02:03:04;;;;;;;15.98;8.85;;;;;;;;;;5041242;28;20387;-34
2023/02/06 02:05:32;;;;;;;12.98;8.95;;;;;;;;;;5026680;28;20037;-33
2023/02/06 02:08:05;;;;;;;14.35;9.20;;;;;;;;;;5022832;28;20045;-32
2023/02/06 02:10:31;;;;;;;16.02;8.55;;;;;;;;;;5022630;28;20155;-34
2023/02/06 02:12:57;;;;;;;15.77;8.50;;;;;;;;;;5024211;28;20022;-31
2023/02/06 02:15:27;;;;;;;15.85;9.65;;;;;;;;;;5022061;28;20390;-32
2023/02/06 02:18:02;;;;;;;12.13;8.60;;;;;;;;;;5022867;28;20022;-32
2023/02/06 02:20:50;;;;;;;12.02;7.90;;;;;;;;;;5027623;28;20048;-33
2023/02/06 02:23:22;;;;;;;12.38;8.55;;;;;;;;;;5022937;28;20051;-35
2023/02/06 02:26:03;;;;;;;12.50;8.35;;;;;;;;;;5027650;28;20521;-32
2023/02/06 02:28:41;;;;;;;10.73;8.10;;;;;;;;;;5027828;28;20108;-33
2023/02/06 02:31:07;;;;;;;13.90;8.18;;;;;;;;;;5029241;28;20441;-33
2023/02/06 02:33:41;;;;;;;12.88;8.45;;;;;;;;;;5029279;28;20037;-34
2023/02/06 02:36:26;;;;;;;16.10;9.52;;;;;;;;;;5027502;28;20025;-33
2023/02/06 02:39:06;;;;;;;11.85;7.30;;;;;;;;;;5027856;28;20045;-33
2023/02/06 02:41:37;;;;;;;15.35;10.05;;;;;;;;;;5029519;28;20116;-32
2023/02/06 02:44:22;;;;;;;13.63;8.60;;;;;;;;;;5030209;28;20103;-32
2023/02/06 02:46:49;;;;;;;11.43;8.45;;;;;;;;;;5030741;28;20065;-32
2023/02/06 02:49:17;;;;;;;14.15;9.13;;;;;;;;;;5028336;28;20041;-31
2023/02/06 02:51:44;;;;;;;14.53;9.17;;;;;;;;;;5027695;28;20025;-32
2023/02/06 02:54:10;;;;;;;14.45;9.27;;;;;;;;;;5029948;28;20038;-32
2023/02/06 02:56:36;;;;;;;12.93;8.32;;;;;;;;;;5027448;28;20022;-32
2023/02/06 02:59:22;;;;;;;14.73;8.98;;;;;;;;;;5027015;28;20442;-33
2023/02/06 03:01:52;;;;;;;13.95;10.07;;;;;;;;;;5024048;28;20092;-32
2023/02/06 03:04:26;;;;;;;13.82;8.52;;;;;;;;;;5029066;28;20280;-33
2023/02/06 03:07:11;;;;;;;13.85;8.82;;;;;;;;;;5028562;28;20425;-33
2023/02/06 03:09:52;;;;;;;12.07;8.68;;;;;;;;;;5026835;28;20029;-32
2023/02/06 03:12:19;;;;;;;13.30;8.95;;;;;;;;;;5026470;28;20519;-33
2023/02/06 03:14:59;;;;;;;13.63;8.57;;;;;;;;;;5025072;28;20057;-32
2023/02/06 03:17:30;;;;;;;18.38;9.93;;;;;;;;;;5027691;28;20033;-33
2023/02/06 03:19:57;;;;;;;12.10;8.52;;;;;;;;;;5027138;28;20076;-32
2023/02/06 03:22:25;;;;;;;12.75;7.75;;;;;;;;;;5027858;28;20461;-33
2023/02/06 03:24:52;;;;;;;13.63;8.93;;;;;;;;;;5029130;28;20025;-32
2023/02/06 03:27:19;;;;;;;13.90;8.63;;;;;;;;;;5025490;28;20711;-36
2023/02/06 03:29:47;;;;;;;14.50;9.48;;;;;;;;;;5029220;28;20202;-32
2023/02/06 03:32:22;;;;;;;12.63;8.00;;;;;;;;;;5023552;28;20037;-31
2023/02/06 03:34:51;;;;;;;12.32;9.50;;;;;;;;;;5026592;28;20454;-34
2023/02/06 03:37:17;;;;;;;14.27;8.88;;;;;;;;;;5022249;28;20057;-32
2023/02/06 03:39:43;;;;;;;12.93;8.18;;;;;;;;;;5028372;28;20513;-36
2023/02/06 03:42:10;;;;;;;15.38;8.90;;;;;;;;;;5025761;28;20041;-32
2023/02/06 03:44:39;;;;;;;11.68;8.13;;;;;;;;;;5026659;28;20087;-32
2023/02/06 03:47:05;;;;;;;;;;;;;;;;;;5027918;28;20052;-32
2023/02/06 03:49:32;;;;;;;9.40;7.13;;;;;;;;;;5025721;28;19917;-32
2023/02/06 03:52:02;;;;;;;10.95;6.85;;;;;;;;;;5029271;28;20059;-33
2023/02/06 03:54:28;;;;;;;12.80;8.18;;;;;;;;;;5024440;28;20434;-34
2023/02/06 03:56:57;;;;;;;12.45;7.70;;;;;;;;;;5028659;28;20491;-32
2023/02/06 03:59:24;;;;;;;10.98;8.25;;;;;;;;;;5026488;28;20034;-33
2023/02/06 04:02:01;;;;;;;12.63;7.72;;;;;;;;;;5025972;28;20037;-35
2023/02/06 04:04:38;;;;;;;10.05;6.80;;;;;;;;;;5019150;28;20378;-35
2023/02/06 04:07:08;;;;;;;10.68;7.38;;;;;;;;;;5023361;28;20041;-32
2023/02/06 04:09:34;;;;;;;10.23;7.32;;;;;;;;;;5023058;28;20040;-34
2023/02/06 04:12:00;;;;;;;11.63;6.78;;;;;;;;;;5026749;28;20030;-32
2023/02/06 04:14:26;;;;;;;10.07;6.20;;;;;;;;;;5024504;28;20486;-34
2023/02/06 04:16:52;;;;;;;9.75;6.53;;;;;;;;;;5025995;28;20025;-35
2023/02/06 04:19:18;;;;;;;10.07;6.63;;;;;;;;;;5027192;28;20029;-32
2023/02/06 04:21:44;;;;;;;10.95;7.15;;;;;;;;;;5022731;28;20036;-33
2023/02/06 04:24:10;;;;;;;11.05;6.63;;;;;;;;;;5027469;28;20029;-34
2023/02/06 04:26:36;;;;;;;9.68;7.10;;;;;;;;;;5025441;28;20096;-32
2023/02/06 04:29:02;;;;;;;11.15;6.97;;;;;;;;;;5026798;28;20026;-35
2023/02/06 04:31:28;;;;;;;8.63;6.05;;;;;;;;;;5025838;28;20394;-34
2023/02/06 04:33:54;;;;;;;8.20;6.00;;;;;;;;;;5027096;28;20037;-32
2023/02/06 04:36:19;;;;;;;7.03;5.75;;;;;;;;;;5021481;28;20029;-34
2023/02/06 04:38:45;;;;;;;7.78;5.63;;;;;;;;;;5024392;28;20434;-34
2023/02/06 04:41:11;;;;;;;9.30;6.30;;;;;;;;;;5026109;28;20037;-34
2023/02/06 04:43:37;;;;;;;10.07;6.78;;;;;;;;;;5025655;28;20052;-33
2023/02/06 04:46:03;;;;;;;7.55;6.10;;;;;;;;;;5024559;28;20021;-34
2023/02/06 04:48:29;;;;;;;9.45;6.53;;;;;;;;;;5028084;28;20434;-33
2023/02/06 04:50:55;;;;;;;11.30;6.30;;;;;;;;;;5025407;28;20034;-33
2023/02/06 04:53:21;;;;;;;10.48;7.05;;;;;;;;;;5025239;28;20048;-32
2023/02/06 04:55:47;;;;;;;6.80;5.85;;;;;;;;;;5025712;28;20032;-33
2023/02/06 04:58:13;;;;;;;13.60;6.50;;;;;;;;;;5025605;28;20026;-36
2023/02/06 05:00:39;;;;;;;10.43;6.93;;;;;;;;;;5024107;28;20083;-36
2023/02/06 05:03:05;;;;;;;9.45;6.75;;;;;;;;;;5026928;28;20029;-32
2023/02/06 05:05:31;;;;;;;8.23;5.97;;;;;;;;;;5023395;28;20116;-32
2023/02/06 05:07:57;;;;;;;8.35;6.38;;;;;;;;;;5024547;28;20149;-33
2023/02/06 05:10:23;;;;;;;10.23;6.72;;;;;;;;;;5024210;28;20040;-35
2023/02/06 05:12:50;;;;;;;8.50;6.40;;;;;;;;;;5023041;28;20076;-34
2023/02/06 05:15:16;;;;;;;9.18;6.47;;;;;;;;;;5022562;28;20051;-33
2023/02/06 05:17:42;;;;;;;11.20;6.38;;;;;;;;;;5022730;28;20109;-32
2023/02/06 05:20:08;;;;;;;7.55;6.00;;;;;;;;;;5023913;28;20144;-35
2023/02/06 05:22:34;;;;;;;6.60;5.97;;;;;;;;;;5022957;28;20109;-32
2023/02/06 05:25:00;;;;;;;11.63;6.57;;;;;;;;;;5023554;28;20402;-33
2023/02/06 05:27:26;;;;;;;8.93;7.13;;;;;;;;;;5025914;28;20025;-32
2023/02/06 05:29:52;;;;;;;8.30;5.90;;;;;;;;;;5024716;28;20569;-35
2023/02/06 05:32:18;;;;;;;9.25;6.72;;;;;;;;;;5023044;28;20034;-35
2023/02/06 05:34:44;;;;;;;10.02;6.07;;;;;;;;;;5025354;28;20447;-35
2023/02/06 05:37:10;;;;;;;9.30;6.05;;;;;;;;;;5027412;28;20025;-34
2023/02/06 05:39:36;;;;;;;8.30;5.72;;;;;;;;;;5025834;28;20029;-32
2023/02/06 05:42:02;;;;;;;11.60;7.25;;;;;;;;;;5025455;28;20394;-32
2023/02/06 05:44:29;;;;;;;7.00;6.28;;;;;;;;;;5024841;28;20486;-33
2023/02/06 05:46:55;;;;;;;9.18;6.40;;;;;;;;;;5026347;28;20487;-32
2023/02/06 05:49:21;;;;;;;13.48;6.68;;;;;;;;;;5028006;28;20045;-33
2023/02/06 05:51:47;;;;;;;9.75;6.55;;;;;;;;;;5025805;28;20060;-33
2023/02/06 05:54:15;;;;;;;6.97;6.10;;;;;;;;;;5025781;28;20033;-33
2023/02/06 05:56:41;;;;;;;;;;;;;;;;;;5028372;28;20075;-34
2023/02/06 05:59:07;;;;;;;8.50;5.25;;;;;;;;;;5030174;28;19913;-32
2023/02/06 06:01:33;;;;;;;9.00;6.03;;;;;;;;;;5029103;28;20130;-32
2023/02/06 06:03:59;;;;;;;7.80;6.05;;;;;;;;;;5023702;28;20113;-35
2023/02/06 06:06:25;;;;;;;9.18;6.72;;;;;;;;;;5028212;28;20029;-33
2023/02/06 06:08:52;;;;;;;9.70;7.07;;;;;;;;;;5023189;28;20525;-36
2023/02/06 06:11:18;;;;;;;11.10;7.28;;;;;;;;;;5029025;28;20429;-35
2023/02/06 06:13:44;;;;;;;10.27;7.45;;;;;;;;;;5023917;28;20078;-33
2023/02/06 06:16:09;;;;;;;10.73;6.70;;;;;;;;;;5028747;28;20021;-33
2023/02/06 06:18:35;;;;;;;8.40;7.00;;;;;;;;;;5028899;28;20018;-33
2023/02/06 06:21:01;;;;;;;10.85;6.40;;;;;;;;;;5028715;28;20537;-34
2023/02/06 06:23:27;;;;;;;11.00;6.85;;;;;;;;;;5023746;28;20083;-36
2023/02/06 06:25:53;;;;;;;8.07;6.75;;;;;;;;;;5027430;28;20029;-33
2023/02/06 06:28:19;;;;;;;8.80;6.40;;;;;;;;;;5023328;28;20120;-34
2023/02/06 06:30:45;;;;;;;7.65;6.45;;;;;;;;;;5020759;28;20041;-33
2023/02/06 06:33:14;;;;;;;12.43;7.65;;;;;;;;;;5023752;28;20700;-33
2023/02/06 06:35:40;;;;;;;16.70;8.98;;;;;;;;;;5022757;28;20171;-34
2023/02/06 06:38:06;;;;;;;11.35;7.35;;;;;;;;;;5025672;28;20049;-33
2023/02/06 06:40:32;;;;;;;12.25;8.07;;;;;;;;;;5025316;28;20030;-36
2023/02/06 06:42:57;;;;;;;10.50;7.85;;;;;;;;;;5023756;28;20084;-33
2023/02/06 06:45:23;;;;;;;11.63;7.80;;;;;;;;;;5023978;28;20394;-34
2023/02/06 06:47:49;;;;;;;10.32;7.60;;;;;;;;;;5027306;28;20405;-32
2023/02/06 06:50:15;;;;;;;9.60;6.65;;;;;;;;;;5020860;28;20069;-36
2023/02/06 06:52:41;;;;;;;11.98;8.55;;;;;;;;;;5025575;28;20037;-32
2023/02/06 06:55:07;;;;;;;12.48;7.80;;;;;;;;;;5026701;28;20522;-35
2023/02/06 06:57:33;;;;;;;9.95;7.20;;;;;;;;;;5025890;28;20332;-33
2023/02/06 06:59:59;;;;;;;11.02;7.18;;;;;;;;;;5026198;28;20091;-35
2023/02/06 07:02:27;;;;;;;10.82;8.48;;;;;;;;;;5020734;28;20049;-36
2023/02/06 07:04:53;;;;;;;11.73;7.75;;;;;;;;;;5024467;28;20465;-34
2023/02/06 07:07:19;;;;;;;15.77;7.50;;;;;;;;;;5022215;28;20080;-32
2023/02/06 07:09:45;;;;;;;11.07;8.13;;;;;;;;;;5028961;28;20026;-32
2023/02/06 07:12:11;;;;;;;10.45;7.97;;;;;;;;;;5027041;28;20490;-33
2023/02/06 07:14:37;;;;;;;17.10;9.32;;;;;;;;;;5022551;28;20459;-34
2023/02/06 07:17:03;;;;;;;10.40;8.45;;;;;;;;;;5018442;28;20125;-34
2023/02/06 07:19:29;;;;;;;12.50;8.00;;;;;;;;;;5023059;28;20510;-34
2023/02/06 07:21:55;;;;;;;14.93;10.10;;;;;;;;;;5021332;28;20147;-32
2023/02/06 07:24:21;;;;;;;11.32;8.68;;;;;;;;;;5023885;28;20534;-31
2023/02/06 07:26:47;;;;;;;13.73;9.25;;;;;;;;;;5027036;28;20581;-33
2023/02/06 07:29:13;;;;;;;13.20;8.70;;;;;;;;;;5022476;28;20037;-32
2023/02/06 07:31:39;;;;;;;13.23;9.63;;;;;;;;;;5025304;28;20049;-32
2023/02/06 07:34:05;;;;;;;13.90;9.40;;;;;;;;;;5026202;28;20029;-32
2023/02/06 07:36:31;;;;;;;13.82;9.63;;;;;;;;;;5025882;28;20039;-32
2023/02/06 07:38:57;;;;;;;17.35;11.20;;;;;;;;;;5025534;28;20378;-32
2023/02/06 07:41:23;;;;;;;13.95;9.55;;;;;;;;;;5023998;28;20101;-34
2023/02/06 07:43:49;;;;;;;13.82;9.85;;;;;;;;;;5026316;28;20029;-31
2023/02/06 07:46:15;;;;;;;16.25;10.57;;;;;;;;;;5025260;28;20033;-32
2023/02/06 07:48:41;;;;;;;16.63;10.38;;;;;;;;;;5026057;28;20048;-33
2023/02/06 07:51:08;;;;;;;13.82;9.52;;;;;;;;;;5028049;28;20055;-32
2023/02/06 07:53:34;;;;;;;16.00;9.48;;;;;;;;;;5026434;28;20025;-32
2023/02/06 07:56:00;;;;;;;20.05;10.70;;;;;;;;;;5025479;28;20025;-32
2023/02/06 07:58:26;;;;;;;14.02;9.48;;;;;;;;;;5026220;28;20029;-36
2023/02/06 08:00:53;;;;;;;18.48;11.63;;;;;;;;;;5025080;28;20423;-35
2023/02/06 08:03:19;;;;;;;11.23;8.02;;;;;;;;;;5028466;28;20021;-32
2023/02/06 08:05:45;;;;;;;12.25;8.57;;;;;;;;;;5027474;28;20057;-32
2023/02/06 08:08:11;;;;;;;14.32;8.70;;;;;;;;;;5021900;28;20072;-32
2023/02/06 08:10:38;;;;;;;14.18;9.43;;;;;;;;;;5025253;28;20045;-32
2023/02/06 08:13:04;;;;;;;12.32;8.75;;;;;;;;;;5027077;28;20033;-33
2023/02/06 08:15:30;;;;;;;16.90;10.00;;;;;;;;;;5022707;28;20072;-35
2023/02/06 08:17:56;;;;;;;12.18;8.55;;;;;;;;;;5021803;28;20406;-35
2023/02/06 08:20:22;;;;;;;14.57;8.75;;;;;;;;;;5023446;28;20033;-33
2023/02/06 08:22:48;;;;;;;8.95;7.47;;;;;;;;;;5024665;28;20479;-32
2023/02/06 08:25:14;;;;;;;11.93;8.30;;;;;;;;;;5022090;28;20029;-34
2023/02/06 08:27:40;;;;;;;15.27;9.57;;;;;;;;;;5021486;28;20485;-33
2023/02/06 08:30:06;;;;;;;14.23;9.73;;;;;;;;;;5013754;28;20036;-32
2023/02/06 08:32:33;;;;;;;14.52;10.23;;;;;;;;;;5023182;28;20057;-33
2023/02/06 08:34:59;;;;;;;14.88;10.25;;;;;;;;;;5023091;28;20028;-35
2023/02/06 08:37:25;;;;;;;15.50;9.50;;;;;;;;;;5022692;28;20431;-33
2023/02/06 08:39:51;;;;;;;13.00;8.48;;;;;;;;;;5020850;28;20060;-32
2023/02/06 08:42:17;;;;;;;11.82;8.40;;;;;;;;;;5018771;28;20071;-33
2023/02/06 08:44:43;;;;;;;16.08;9.70;;;;;;;;;;5022708;28;20029;-34
2023/02/06 08:47:09;;;;;;;11.57;7.55;;;;;;;;;;5020151;28;20104;-34
2023/02/06 08:49:35;;;;;;;13.23;9.38;;;;;;;;;;5013438;28;20455;-34
2023/02/06 08:52:01;;;;;;;14.70;9.20;;;;;;;;;;5020848;28;20035;-33
2023/02/06 08:54:27;;;;;;;15.75;9.43;;;;;;;;;;5023504;28;20025;-36
2023/02/06 08:56:55;;;;;;;15.23;9.68;;;;;;;;;;5023201;28;20513;-32
2023/02/06 08:59:22;;;;;;;14.65;10.02;;;;;;;;;;5018069;28;20031;-35
2023/02/06 09:01:48;;;;;;;15.10;9.95;;;;;;;;;;5021927;28;20037;-32
2023/02/06 09:04:15;;;;;;;13.48;9.00;;;;;;;;;;5024198;28;20033;-32
2023/02/06 09:06:42;;;;;;;11.55;8.73;;;;;;;;;;5012870;28;20059;-32
2023/02/06 09:09:09;;;;;;;11.63;8.13;;;;;;;;;;5007633;28;20120;-35
2023/02/06 09:11:35;;;;;;;13.38;8.18;;;;;;;;;;5004549;28;20368;-32
2023/02/06 09:14:02;;;;;;;9.65;7.22;;;;;;;;;;5022929;28;20033;-31
2023/02/06 09:16:31;;;;;;;11.68;9.20;;;;;;;;;;5027189;28;20021;-32
2023/02/06 09:19:00;;;;;;;9.93;7.72;;;;;;;;;;5019550;28;20030;-33
2023/02/06 09:21:26;;;;;;;13.93;8.75;;;;;;;;;;5027625;28;20037;-32
2023/02/06 09:23:54;;;;;;;14.43;8.15;;;;;;;;;;5023644;28;20611;-32
2023/02/06 09:26:21;;;;;;;12.65;8.68;;;;;;;;;;5026902;28;20405;-32
2023/02/06 09:28:50;;;;;;;10.97;6.63;;;;;;;;;;5024798;28;20033;-33
2023/02/06 09:31:16;;;;;;;9.85;6.40;;;;;;;;;;5027460;28;20139;-35
2023/02/06 09:33:42;;;;;;;11.82;7.18;;;;;;;;;;5041503;28;20403;-33
2023/02/06 09:36:10;;;;;;;10.63;7.50;;;;;;;;;;5026084;28;20038;-34
2023/02/06 09:38:38;;;;;;;11.27;7.97;;;;;;;;;;5030213;28;20026;-32
2023/02/06 09:41:05;;;;;;;14.45;8.90;;;;;;;;;;5024435;28;20032;-35
2023/02/06 09:43:32;;;;;;;8.68;6.43;;;;;;;;;;5023817;28;20037;-33
2023/02/06 09:46:04;;;;;;;13.27;7.05;;;;;;;;;;5027509;28;20040;-33
2023/02/06 09:48:32;;;;;;;10.40;7.50;;;;;;;;;;5027114;28;20044;-32
2023/02/06 09:50:58;;;;;;;11.10;7.65;;;;;;;;;;5030011;28;20025;-33
2023/02/06 09:53:54;;;;;;;9.82;7.28;;;;;;;;;;5024750;28;20159;-33
2023/02/06 09:56:26;;;;;;;13.25;7.68;;;;;;;;;;5005251;28;20050;-32
2023/02/06 09:59:11;;;;;;;13.02;8.55;;;;;;;;;;5029995;28;20041;-33
2023/02/06 10:01:41;;;;;;;9.05;7.03;;;;;;;;;;5027730;28;20117;-32
2023/02/06 10:04:25;;;;;;;11.30;7.82;;;;;;;;;;5029918;28;20026;-32
2023/02/06 10:07:04;;;;;;;7.97;6.05;;;;;;;;;;5024211;28;20025;-32
2023/02/06 10:09:36;;;;;;;11.13;6.22;;;;;;;;;;5028761;28;20025;-34
2023/02/06 10:12:04;;;;;;;12.30;6.95;;;;;;;;;;5029575;28;20410;-34
2023/02/06 10:14:30;;;;;;;9.23;5.57;;;;;;;;;;5030623;28;20033;-33
2023/02/06 10:17:04;;;;;;;11.70;6.95;;;;;;;;;;5028370;28;20116;-34
2023/02/06 10:19:37;;;;;;;16.00;6.40;;;;;;;;;;5029743;28;20204;-35
2023/02/06 10:22:15;;;;;;;10.93;7.22;;;;;;;;;;5030555;28;20034;-33
2023/02/06 10:24:46;;;;;;;9.20;6.45;;;;;;;;;;5028999;28;20497;-37
2023/02/06 10:27:13;;;;;;;8.23;5.38;;;;;;;;;;5027422;28;20096;-34
2023/02/06 10:29:41;;;;;;;8.57;6.07;;;;;;;;;;5027804;28;20037;-33
2023/02/06 10:32:13;;;;;;;8.77;6.25;;;;;;;;;;5025243;28;20521;-33
2023/02/06 10:34:46;;;;;;;9.35;5.63;;;;;;;;;;5026614;28;20021;-32
2023/02/06 10:37:14;;;;;;;8.75;6.88;;;;;;;;;;5024462;28;20029;-32
2023/02/06 10:39:59;;;;;;;8.63;6.07;;;;;;;;;;5029736;28;20021;-32
2023/02/06 10:42:30;;;;;;;7.03;5.07;;;;;;;;;;5026657;28;20276;-33
2023/02/06 10:45:20;;;;;;;8.93;5.55;;;;;;;;;;5028606;28;20021;-32
2023/02/06 10:47:56;;;;;;;8.90;6.32;;;;;;;;;;5021228;28;20034;-32
2023/02/06 10:50:32;;;;;;;7.30;6.10;;;;;;;;;;5023275;28;20026;-34
2023/02/06 10:53:03;;;;;;;8.52;6.45;;;;;;;;;;5025018;28;20068;-34
2023/02/06 10:55:50;;;;;;;16.58;6.82;;;;;;;;;;5024195;28;20108;-32
2023/02/06 10:58:20;;;;;;;6.70;5.97;;;;;;;;;;5024705;28;20090;-35
2023/02/06 11:00:47;;;;;;;10.10;6.43;;;;;;;;;;5026770;28;20084;-32
2023/02/06 11:03:15;;;;;;;9.05;6.80;;;;;;;;;;5027934;28;20390;-32
2023/02/06 11:05:42;;;;;;;7.90;5.70;;;;;;;;;;5026417;28;20448;-33
2023/02/06 11:08:31;;;;;;;6.97;5.38;;;;;;;;;;5026712;28;20029;-32
2023/02/06 11:10:57;;;;;;;7.10;5.85;;;;;;;;;;5022012;28;20091;-34
2023/02/06 11:13:29;;;;;;;6.38;5.38;;;;;;;;;;5024604;28;20033;-35
2023/02/06 11:15:55;;;;;;;7.93;5.07;;;;;;;;;;5024305;28;20490;-37
2023/02/06 11:18:23;;;;;;;8.57;6.30;;;;;;;;;;5023765;28;20108;-34
2023/02/06 11:20:50;;;;;;;7.78;4.88;;;;;;;;;;5023798;28;20036;-34
2023/02/06 11:23:18;;;;;;;13.65;5.43;;;;;;;;;;5024921;28;20026;-33
2023/02/06 11:25:45;;;;;;;6.65;4.82;;;;;;;;;;5023543;28;20470;-32
2023/02/06 11:28:18;;;;;;;8.85;6.15;;;;;;;;;;5025106;28;20099;-33
2023/02/06 11:30:56;;;;;;;6.28;5.35;;;;;;;;;;5026120;28;20079;-32
2023/02/06 11:33:25;;;;;;;6.97;5.82;;;;;;;;;;5026710;28;20033;-35
2023/02/06 11:35:53;;;;;;;5.40;4.32;;;;;;;;;;5027233;28;20605;-33
2023/02/06 11:38:21;;;;;;;6.80;4.50;;;;;;;;;;5025376;28;20159;-32
2023/02/06 11:40:55;;;;;;;9.00;5.57;;;;;;;;;;5027752;28;20083;-32
2023/02/06 11:43:23;;;;;;;8.00;5.20;;;;;;;;;;5023465;28;20486;-34
2023/02/06 11:45:52;;;;;;;10.75;6.70;;;;;;;;;;5026683;28;20026;-33
2023/02/06 11:48:38;;;;;;;9.18;6.10;;;;;;;;;;5025914;28;20053;-33
2023/02/06 11:51:05;;;;;;;10.45;6.03;;;;;;;;;;5025516;28;20484;-35
2023/02/06 11:53:31;;;;;;;5.93;5.30;;;;;;;;;;5020962;28;20040;-34
2023/02/06 11:55:59;;;;;;;6.18;5.57;;;;;;;;;;5025531;28;20013;-35
2023/02/06 11:58:26;;;;;;;8.73;6.85;;;;;;;;;;5026133;28;20056;-32
2023/02/06 12:00:53;;;;;;;9.50;6.70;;;;;;;;;;5023548;28;20040;-33
2023/02/06 12:03:30;;;;;;;10.00;7.13;;;;;;;;;;5015965;28;20034;-34
2023/02/06 12:05:59;;;;;;;8.50;6.20;;;;;;;;;;5010357;28;20034;-36
2023/02/06 12:08:28;;;;;;;6.53;5.75;;;;;;;;;;5006414;28;20057;-36
2023/02/06 12:11:00;;;;;;;8.63;5.28;;;;;;;;;;5002598;28;20041;-35
2023/02/06 12:13:28;;;;;;;8.50;5.63;;;;;;;;;;5004428;28;20387;-33
2023/02/06 12:15:56;;;;;;;4.67;4.23;;;;;;;;;;5001593;28;20042;-33
2023/02/06 12:18:27;;;;;;;7.07;5.07;;;;;;;;;;5010871;28;20272;-35
2023/02/06 12:20:58;;;;;;;6.80;4.32;;;;;;;;;;5019555;28;20491;-36
2023/02/06 12:23:30;;;;;;;5.60;4.60;;;;;;;;;;5022191;28;20025;-33
2023/02/06 12:25:59;;;;;;;6.47;5.88;;;;;;;;;;5021912;28;20030;-33
2023/02/06 12:28:28;;;;;;;6.15;3.83;;;;;;;;;;5028019;28;20517;-32
2023/02/06 12:31:02;;;;;;;3.92;3.45;;;;;;;;;;5026585;28;20713;-32
2023/02/06 12:33:35;;;;;;;4.47;2.92;;;;;;;;;;5025063;28;20026;-32
2023/02/06 12:36:06;;;;;;;4.70;3.58;;;;;;;;;;5023243;28;20107;-32
2023/02/06 12:38:56;;;;;;;6.82;4.72;;;;;;;;;;5028290;28;20380;-32
2023/02/06 12:41:40;;;;;;;8.63;3.05;;;;;;;;;;5019541;28;20052;-32
2023/02/06 12:44:16;;;;;;;4.82;3.05;;;;;;;;;;5021821;28;20065;-33
2023/02/06 12:46:43;;;;;;;4.80;4.15;;;;;;;;;;5025341;28;20561;-36
2023/02/06 12:49:18;;;;;;;4.60;3.28;;;;;;;;;;5025247;28;20038;-36
2023/02/06 12:51:47;;;;;;;3.13;2.58;;;;;;;;;;5025185;28;20416;-32
2023/02/06 12:54:16;;;;;;;5.50;3.75;;;;;;;;;;5026420;28;20034;-33
2023/02/06 12:56:47;;;;;;;3.40;3.03;;;;;;;;;;5021684;28;20052;-35
2023/02/06 12:59:33;;;;;;;5.28;4.13;;;;;;;;;;5019250;28;20037;-32
2023/02/06 13:02:14;;;;;;;6.10;3.95;;;;;;;;;;5021414;28;20033;-33
2023/02/06 13:04:40;;;;;;;3.50;2.67;;;;;;;;;;5024143;28;20053;-32
2023/02/06 13:07:09;;;;;;;3.90;3.28;;;;;;;;;;5022476;28;20068;-32
2023/02/06 13:09:34;;;;;;;;;;;;;;;;;;5025648;28;20025;-32
2023/02/06 13:12:07;;;;;;;4.85;3.42;;;;;;;;;;5022862;28;19999;-32
2023/02/06 13:14:34;;;;;;;7.57;3.65;;;;;;;;;;5019720;28;20084;-33
2023/02/06 13:17:09;;;;;;;4.25;3.85;;;;;;;;;;5023860;28;20029;-37
2023/02/06 13:19:41;;;;;;;5.07;4.43;;;;;;;;;;5002402;28;20075;-32
2023/02/06 13:22:11;;;;;;;5.28;4.55;;;;;;;;;;5004141;28;20033;-33
2023/02/06 13:24:38;;;;;;;8.65;5.10;;;;;;;;;;5006117;28;20029;-35
2023/02/06 13:27:07;;;;;;;6.55;4.47;;;;;;;;;;5010966;28;20029;-32
2023/02/06 13:29:33;;;;;;;;;;;;;;;;;;5018136;28;20775;-33
2023/02/06 13:32:11;;;;;;;6.88;4.68;;;;;;;;;;5025814;28;19913;-33
2023/02/06 13:34:57;;;;;;;8.10;5.18;;;;;;;;;;5022596;28;20545;-34
2023/02/06 13:37:40;;;;;;;4.25;3.88;;;;;;;;;;5031933;28;20403;-33
2023/02/06 13:40:21;;;;;;;6.45;3.78;;;;;;;;;;5022292;28;20040;-32
2023/02/06 13:42:50;;;;;;;5.43;3.85;;;;;;;;;;5024412;28;20030;-32
2023/02/06 13:45:15;;;;;;;;;;;;;;;;;;5024016;28;20038;-32
2023/02/06 13:47:54;;;;;;;4.68;3.58;;;;;;;;;;5022689;28;19921;-32
2023/02/06 13:50:20;;;;;;;;;;;;;;;;;;5018438;28;20032;-34
2023/02/06 13:52:55;;;;;;;5.65;3.72;;;;;;;;;;5022878;28;19917;-32
2023/02/06 13:55:37;;;;;;;6.18;4.22;;;;;;;;;;5022187;28;20029;-35
2023/02/06 13:58:06;;;;;;;6.05;4.35;;;;;;;;;;5021935;28;20358;-32
2023/02/06 14:00:32;;;;;;;6.28;4.22;;;;;;;;;;5021483;28;20029;-34
2023/02/06 14:03:13;;;;;;;4.53;4.13;;;;;;;;;;5016395;28;20133;-33
2023/02/06 14:05:45;;;;;;;5.82;4.68;;;;;;;;;;5021274;28;20323;-32
2023/02/06 14:08:20;;;;;;;8.85;4.65;;;;;;;;;;5023781;28;20056;-32
2023/02/06 14:13:49;;;;;;;5.35;3.67;;;;;;;;;;5021459;28;20568;-33
2023/02/06 14:16:34;;;;;;;6.53;4.90;;;;;;;;;;5025005;28;20021;-37
2023/02/06 14:19:08;;;;;;;4.75;3.33;;;;;;;;;;5026211;28;20056;-36
2023/02/06 14:21:57;;;;;;;5.07;3.70;;;;;;;;;;5026479;28;20036;-34
2023/02/06 14:24:47;;;;;;;4.80;3.60;;;;;;;;;;5025061;28;20025;-34
2023/02/06 14:27:12;;;;;;;4.22;2.85;;;;;;;;;;5026785;28;20597;-32
2023/02/06 14:29:59;;;;;;;4.28;3.88;;;;;;;;;;5028729;28;20029;-35
2023/02/06 14:32:35;;;;;;;4.65;3.63;;;;;;;;;;5026638;28;20053;-32
2023/02/06 14:35:09;;;;;;;4.22;3.83;;;;;;;;;;5026202;28;20223;-33
2023/02/06 14:37:46;;;;;;;7.95;3.47;;;;;;;;;;5026063;28;20029;-31
2023/02/06 14:40:23;;;;;;;9.93;3.55;;;;;;;;;;5021472;28;20038;-31
2023/02/06 14:42:50;;;;;;;4.75;3.38;;;;;;;;;;5020644;28;20033;-33
2023/02/06 14:45:23;;;;;;;5.03;3.55;;;;;;;;;;5026453;28;20074;-33
2023/02/06 14:47:49;;;;;;;7.47;4.13;;;;;;;;;;5024694;28;20128;-37
2023/02/06 14:50:18;;;;;;;4.78;3.63;;;;;;;;;;5026285;28;20061;-32